Latest Weather Observations for Lake Macquarie - Cooranbong

IDN60901

Issued at 8:21 am EST Tuesday 26 September 2017 (issued every 10 minutes, with the page automatically refreshed every 10 minutes)

About weather observations | Map of Sydney area stations | Latest observations for Sydney area | Other Formats
Station Details ID: 061412 Name: LAKE MACQUARIE AWS Lat: -33.09 Lon: 151.46 Height: 6.0 m
Data from the previous 72 hours. | See also: Recent months at Lake Macquarie - Cooranbong
Date/Time
EST
Temp
°C
App
Temp
°C
Dew
Point
°C
Rel
Hum
%
Delta-T
°C
Wind Press
QNH
hPa
Press
MSL
hPa
Rain since
9am
mm
Dir  Spd
km/h
Gust
km/h
Spd
kts
Gust
kts
26/08:00am 18.2 17.5 7.0 48 5.6 CALM 0 0 0 0 1016.7 1016.7 0.0
26/07:30am 14.5 14.1 8.2 66 3.2 CALM 0 2 0 1 1016.4 1016.4 0.0
26/07:00am 9.4 8.7 7.0 85 1.1 CALM 0 0 0 0 1016.3 1016.3 0.0
26/06:30am 6.4 5.3 4.9 90 0.7 CALM 0 0 0 0 1016.0 1016.0 0.0
26/06:00am 5.9 4.7 4.4 90 0.6 CALM 0 0 0 0 1015.6 1015.6 0.0
26/05:30am 6.0 4.7 4.0 87 0.8 CALM 0 0 0 0 1015.2 1015.2 0.0
26/05:00am 6.5 5.2 4.3 86 0.9 CALM 0 0 0 0 1014.7 1014.7 0.0
26/04:30am 7.0 5.7 4.3 83 1.2 CALM 0 0 0 0 1014.3 1014.3 0.0
26/04:00am 7.8 6.6 4.7 81 1.4 CALM 0 0 0 0 1013.9 1013.9 0.0
26/03:30am 7.8 6.6 4.4 79 1.5 CALM 0 0 0 0 1013.7 1013.7 0.0
26/03:00am 8.8 7.6 4.8 76 1.8 CALM 0 0 0 0 1013.5 1013.5 0.0
26/02:30am 9.3 8.1 4.7 73 2.0 CALM 0 0 0 0 1013.4 1013.4 0.0
26/02:00am 9.4 8.2 4.8 73 2.1 CALM 0 0 0 0 1013.5 1013.5 0.0
26/01:30am 10.3 9.2 5.1 70 2.4 CALM 0 0 0 0 1013.5 1013.5 0.0
26/01:00am 11.0 9.8 4.5 64 2.9 CALM 0 0 0 0 1013.6 1013.6 0.0
26/12:30am 11.6 10.3 3.9 59 3.4 CALM 0 0 0 0 1013.5 1013.5 0.0
26/12:00am 12.8 11.5 4.0 55 4.0 CALM 0 0 0 0 1013.6 1013.6 0.0
 
Date/Time
EST
Temp
°C
App
Temp
°C
Dew
Point
°C
Rel
Hum
%
Delta-T
°C
Wind Press
QNH
hPa
Press
MSL
hPa
Rain since
9am
mm
Dir  Spd
km/h
Gust
km/h
Spd
kts
Gust
kts
25/11:30pm 13.2 11.8 3.8 53 4.2 CALM 0 0 0 0 1013.7 1013.7 0.0
25/11:00pm 14.3 12.7 2.5 45 5.2 CALM 0 0 0 0 1013.6 1013.6 0.0
25/10:30pm 16.6 14.1 1.5 36 6.7 NNW 4 6 2 3 1013.3 1013.3 0.0
25/10:00pm 18.5 15.8 0.2 29 8.0 WSW 4 9 2 5 1013.4 1013.4 0.0
25/09:30pm 19.4 16.0 -0.6 26 8.7 WSW 7 19 4 10 1013.2 1013.2 0.0
25/09:00pm 19.5 16.3 -0.5 26 8.7 WSW 6 13 3 7 1012.9 1012.9 0.0
25/08:30pm 20.1 16.3 -1.1 24 9.2 WSW 9 17 5 9 1012.4 1012.4 0.0
25/08:00pm 20.8 17.5 -1.1 23 9.5 WSW 6 11 3 6 1011.9 1011.9 0.0
25/07:30pm 21.4 17.9 -1.2 22 9.9 WSW 7 15 4 8 1011.3 1011.3 0.0
25/07:00pm 22.3 17.3 -1.1 21 10.3 W 15 24 8 13 1010.8 1010.8 0.0
25/06:30pm 22.8 18.1 -2.0 19 10.8 W 13 24 7 13 1010.1 1010.1 0.0
25/06:00pm 23.2 19.1 -3.2 17 11.3 W 9 19 5 10 1009.2 1009.2 0.0
25/05:30pm 23.8 17.6 -4.4 15 11.8 W 19 32 10 17 1008.6 1008.6 0.0
25/05:00pm 24.4 19.2 -3.0 16 11.9 W 15 28 8 15 1008.1 1008.1 0.0
25/04:30pm 24.8 20.2 -1.1 18 11.7 WSW 13 22 7 12 1007.3 1007.3 0.0
25/04:00pm 25.1 19.9 -2.5 16 12.2 W 15 26 8 14 1006.6 1006.6 0.0
25/03:30pm 25.6 20.0 -2.9 15 12.5 W 17 41 9 22 1006.1 1006.1 0.0
25/03:00pm 26.2 21.8 -2.4 15 12.7 W 11 26 6 14 1006.0 1006.0 0.0
25/02:30pm 26.3 20.8 -2.4 15 12.8 W 17 37 9 20 1005.5 1005.5 0.0
25/02:00pm 27.1 21.7 -1.7 15 13.1 W 17 28 9 15 1005.1 1005.1 0.0
25/01:30pm 27.7 22.3 -1.3 15 13.3 W 17 28 9 15 1005.1 1005.1 0.0
25/01:00pm 28.3 20.8 -1.7 14 13.8 W 28 52 15 28 1005.4 1005.4 0.0
25/12:54pm 28.9 21.4 -1.2 14 14.0 W 28 46 15 25 1005.1 1005.1 0.0
25/12:30pm 29.3 23.8 0.9 16 13.7 W 19 37 10 20 1005.2 1005.2 0.0
25/12:00pm 28.4 23.2 0.2 16 13.4 W 17 35 9 19 1005.5 1005.5 0.0
25/11:30am 28.0 24.0 0.7 17 13.0 WNW 11 22 6 12 1006.1 1006.1 0.0
25/11:00am 27.4 23.1 1.0 18 12.6 WNW 13 22 7 12 1006.4 1006.4 0.0
25/10:30am 27.2 23.4 1.6 19 12.3 NW 11 15 6 8 1006.9 1006.9 0.0
25/10:00am 26.1 21.1 1.4 20 11.8 WNW 17 32 9 17 1007.4 1007.4 0.0
25/09:30am 25.7 21.5 1.8 21 11.4 NW 13 22 7 12 1007.8 1007.8 0.0
25/09:00am 25.1 21.2 1.3 21 11.2 NW 11 19 6 10 1008.1 1008.1 -
25/08:30am 23.6 21.8 5.5 31 9.1 N 4 9 2 5 1008.2 1008.2 -
25/08:27am 23.3 22.2 8.6 39 7.8 N 4 9 2 5 1008.2 1008.2 -
25/08:00am 18.3 19.0 12.1 67 3.4 CALM 0 0 0 0 1008.1 1008.1 -
25/07:30am 14.5 15.1 12.0 85 1.4 CALM 0 0 0 0 1007.8 1007.8 -
25/07:00am 11.1 11.4 10.8 98 0.2 CALM 0 0 0 0 1007.6 1007.6 -
25/06:30am 9.4 9.2 8.9 97 0.2 CALM 0 0 0 0 1007.4 1007.4 -
25/06:00am 9.0 8.7 8.6 97 0.2 CALM 0 0 0 0 1007.1 1007.1 -
25/05:30am 9.2 8.9 8.7 97 0.2 CALM 0 0 0 0 1006.7 1006.7 -
25/05:00am 9.5 9.3 8.9 96 0.3 CALM 0 0 0 0 1006.3 1006.3 -
25/04:30am 9.7 9.5 9.1 96 0.3 CALM 0 0 0 0 1005.9 1005.9 -
25/04:00am 10.3 10.3 9.7 96 0.3 CALM 0 0 0 0 1005.9 1005.9 -
25/03:30am 10.7 10.7 9.9 95 0.4 CALM 0 0 0 0 1005.7 1005.7 -
25/03:00am 11.2 11.4 10.6 96 0.3 CALM 0 0 0 0 1005.4 1005.4 0.0
25/02:30am 11.6 11.8 10.7 94 0.5 CALM 0 2 0 1 1005.0 1005.0 -
25/02:00am 12.0 12.3 10.9 93 0.6 CALM 0 0 0 0 1004.8 1004.8 -
25/01:30am 12.3 12.6 10.9 91 0.7 CALM 0 0 0 0 1004.9 1004.9 -
25/01:00am 13.1 13.6 11.7 91 0.7 CALM 0 0 0 0 1004.9 1004.9 -
25/12:30am 13.4 14.1 12.1 92 0.7 CALM 0 0 0 0 1005.0 1005.0 -
25/12:00am 13.3 13.8 11.7 90 0.9 CALM 0 0 0 0 1005.2 1005.2 -
 
Date/Time
EST
Temp
°C
App
Temp
°C
Dew
Point
°C
Rel
Hum
%
Delta-T
°C
Wind Press
QNH
hPa
Press
MSL
hPa
Rain since
9am
mm
Dir  Spd
km/h
Gust
km/h
Spd
kts
Gust
kts
24/11:30pm 13.7 14.3 11.9 89 1.0 CALM 0 0 0 0 1005.3 1005.3 -
24/11:00pm 14.2 14.9 12.1 87 1.1 CALM 0 0 0 0 1005.5 1005.5 -
24/10:30pm 14.3 14.9 12.0 86 1.2 CALM 0 0 0 0 1005.5 1005.5 -
24/10:00pm 15.1 15.9 12.4 84 1.5 CALM 0 0 0 0 1005.3 1005.3 -
24/09:30pm 15.6 16.4 12.5 82 1.7 CALM 0 0 0 0 1005.3 1005.3 -
24/09:00pm 16.3 17.1 12.5 78 2.1 CALM 0 0 0 0 1005.2 1005.2 0.0
24/08:30pm 17.0 17.8 12.7 76 2.4 CALM 0 0 0 0 1005.0 1005.0 -
24/08:00pm 17.1 17.9 12.6 75 2.5 CALM 0 0 0 0 1004.8 1004.8 -
24/07:30pm 17.7 18.5 12.6 72 2.8 CALM 0 0 0 0 1004.7 1004.7 -
24/07:00pm 18.4 19.2 12.4 68 3.3 CALM 0 0 0 0 1004.4 1004.4 -
24/06:30pm 19.8 20.1 12.3 62 4.2 WNW 2 6 1 3 1003.9 1003.9 -
24/06:00pm 21.2 20.8 12.3 57 5.0 SSE 6 13 3 7 1003.4 1003.4 -
24/05:30pm 21.9 21.3 11.6 52 5.7 SE 6 11 3 6 1003.3 1003.3 -
24/05:00pm 22.9 22.2 11.9 50 6.2 SE 7 17 4 9 1002.7 1002.7 -
24/04:30pm 23.1 21.6 13.0 53 5.8 ESE 13 20 7 11 1002.3 1002.3 -
24/04:00pm 24.3 23.7 14.7 55 5.7 E 11 22 6 12 1001.6 1001.6 -
24/03:30pm 25.7 25.3 14.2 49 6.8 E 9 19 5 10 1001.4 1001.4 -
24/03:00pm 26.0 25.5 13.8 47 7.2 E 9 15 5 8 1001.4 1001.4 0.0
24/02:30pm 25.1 23.9 13.9 49 6.6 ESE 13 19 7 10 1001.7 1001.7 -
24/02:00pm 25.4 23.5 14.2 50 6.7 E 17 28 9 15 1001.7 1001.7 -
24/01:30pm 26.8 26.2 14.5 46 7.4 E 11 19 6 10 1002.1 1002.1 -
24/01:00pm 30.1 29.6 12.5 34 10.4 S 7 17 4 9 1002.3 1002.3 -
24/12:30pm 33.9 29.5 2.7 14 16.0 WNW 15 26 8 14 1002.1 1002.1 -
24/12:00pm 33.4 28.9 2.3 14 15.9 NW 15 24 8 13 1002.2 1002.2 0.0
24/11:30am 33.0 28.6 2.9 15 15.4 WNW 15 30 8 16 1002.3 1002.3 0.0
24/11:00am 33.1 28.0 3.0 15 15.5 W 19 33 10 18 1003.1 1003.1 0.0
24/10:30am 32.9 29.8 5.5 18 14.6 WNW 11 22 6 12 1003.1 1003.1 0.0
24/10:00am 32.4 27.7 5.1 18 14.5 NW 19 33 10 18 1003.1 1003.1 0.0
24/09:30am 31.9 27.3 5.4 19 14.0 NW 19 37 10 20 1002.3 1002.3 0.0
24/09:00am 31.4 26.7 5.0 19 13.9 NNW 19 33 10 18 1001.6 1001.6 0.0
24/08:30am 31.3 27.3 4.9 19 13.8 NW 15 28 8 15 1002.0 1002.0 0.0
24/08:00am 31.3 26.1 3.4 17 14.3 NW 20 46 11 25 1001.8 1001.8 0.0
24/07:30am 30.6 26.1 4.4 19 13.5 WNW 17 35 9 19 1002.3 1002.3 0.0
24/07:00am 29.9 25.5 4.5 20 13.2 NW 17 37 9 20 1000.4 1000.4 0.0
24/06:30am 30.1 25.0 3.2 18 13.6 NW 19 41 10 22 1001.1 1001.1 0.0
24/06:00am 29.7 25.3 2.9 18 13.5 NW 15 35 8 19 1000.1 1000.1 0.0
24/05:30am 30.3 24.9 2.5 17 13.9 NW 20 44 11 24 1000.6 1000.6 0.0
24/05:00am 30.6 25.3 2.8 17 14.1 NW 20 61 11 33 999.6 999.6 0.0
24/04:30am 30.6 25.7 1.9 16 14.2 NW 17 35 9 19 999.1 999.1 0.0
24/04:00am 31.1 26.5 1.4 15 14.7 NW 15 30 8 16 999.5 999.5 0.0
24/03:30am 30.9 26.0 2.2 16 14.3 NW 17 39 9 21 999.9 999.9 0.0
24/03:00am 30.7 26.2 2.0 16 14.3 NW 15 32 8 17 999.3 999.3 0.0
24/02:30am 30.3 26.2 2.5 17 13.9 NNW 13 32 7 17 999.0 999.0 0.0
24/02:09am 26.6 23.7 6.6 28 10.5 NW 11 30 6 16 999.8 999.8 0.0
24/02:05am 20.7 18.9 8.0 44 6.6 NW 7 19 4 10 999.7 999.7 0.0
24/02:00am 15.2 14.4 9.8 70 2.8 NNW 4 9 2 5 999.7 999.7 0.0
24/01:30am 14.5 14.5 9.9 74 2.4 CALM 0 0 0 0 999.6 999.6 0.0
24/01:00am 14.2 13.7 9.2 72 2.6 WNW 2 6 1 3 1001.0 1001.0 0.0
24/12:30am 15.2 14.8 9.6 69 2.9 WSW 2 6 1 3 1001.3 1001.3 0.0
24/12:00am 14.9 14.2 9.9 72 2.6 E 4 7 2 4 1001.8 1001.8 0.0
 
Date/Time
EST
Temp
°C
App
Temp
°C
Dew
Point
°C
Rel
Hum
%
Delta-T
°C
Wind Press
QNH
hPa
Press
MSL
hPa
Rain since
9am
mm
Dir  Spd
km/h
Gust
km/h
Spd
kts
Gust
kts
23/11:30pm 15.5 15.2 10.1 70 2.8 W 2 4 1 2 1002.1 1002.1 0.0
23/11:00pm 16.2 16.4 10.5 69 3.0 CALM 0 0 0 0 1002.2 1002.2 0.0
23/10:30pm 16.5 16.6 10.1 66 3.4 CALM 0 2 0 1 1002.3 1002.3 0.0
23/10:00pm 16.6 16.5 9.5 63 3.7 CALM 0 0 0 0 1002.5 1002.5 0.0
23/09:30pm 17.5 17.5 9.7 60 4.1 CALM 0 0 0 0 1002.8 1002.8 0.0
23/09:00pm 18.0 18.1 10.1 60 4.2 CALM 0 0 0 0 1002.8 1002.8 0.0
23/08:30pm 18.6 18.6 9.7 56 4.7 CALM 0 0 0 0 1002.7 1002.7 0.0
23/08:00pm 19.6 19.7 10.3 55 5.0 CALM 0 4 0 2 1002.9 1002.9 0.0
23/07:30pm 20.7 20.3 9.9 50 5.8 N 2 4 1 2 1002.9 1002.9 0.0
23/07:00pm 22.4 22.2 9.2 43 7.1 CALM 0 0 0 0 1002.8 1002.8 0.0
23/06:30pm 25.2 24.6 7.3 32 9.4 CALM 0 2 0 1 1002.7 1002.7 0.0
23/06:00pm 28.7 26.3 4.2 21 12.5 N 6 9 3 5 1002.8 1002.8 0.0
23/05:30pm 31.8 29.1 3.8 17 14.4 N 7 13 4 7 1002.7 1002.7 0.0
23/05:00pm 33.0 29.8 2.9 15 15.5 N 9 17 5 9 1002.6 1002.6 0.0
23/04:30pm 34.2 30.4 1.9 13 16.4 NNW 11 19 6 10 1002.6 1002.6 0.0
23/04:00pm 34.6 29.6 1.1 12 16.9 NNW 17 33 9 18 1002.6 1002.6 0.0
23/03:30pm 33.6 29.7 5.2 17 15.1 NNE 15 22 8 12 1002.7 1002.7 0.0
23/03:00pm 33.1 29.5 4.8 17 15.0 NNE 13 26 7 14 1002.8 1002.8 0.0
23/02:30pm 33.5 29.2 5.1 17 15.1 N 17 28 9 15 1003.0 1003.0 0.0
23/02:00pm 33.7 28.5 2.5 14 16.0 N 19 32 10 17 1003.7 1003.7 0.0
23/01:30pm 33.2 29.2 3.1 15 15.5 NNW 13 24 7 13 1004.5 1004.5 0.0
23/01:00pm 31.7 27.9 3.7 17 14.4 N 13 19 7 10 1005.3 1005.3 0.0
23/12:30pm 31.3 27.4 3.4 17 14.2 NNW 13 20 7 11 1006.1 1006.1 0.0
23/12:00pm 29.5 27.2 4.9 21 12.8 NNE 6 9 3 5 1006.7 1006.7 0.0
23/11:30am 27.9 25.9 7.2 27 11.0 NNE 7 15 4 8 1007.2 1007.2 0.0
23/11:00am 23.7 23.4 12.7 50 6.3 NNE 6 7 3 4 1008.1 1008.1 0.0
23/10:30am 21.5 22.3 14.9 66 3.9 N 4 6 2 3 1008.8 1008.8 0.0
23/10:00am 19.8 21.4 14.8 73 2.9 CALM 0 6 0 3 1009.6 1009.6 0.0
23/09:30am 18.5 19.6 13.4 72 2.9 CALM 0 7 0 4 1010.1 1010.1 0.0
23/09:00am 18.3 18.8 12.7 70 3.1 S 2 6 1 3 1010.3 1010.3 0.0
23/08:30am 15.3 15.1 11.7 79 1.9 NE 4 6 2 3 1010.5 1010.5 0.0

Latest Capital City Observations: Canberra | Sydney | Melbourne | Brisbane | Adelaide | Perth | Hobart | Darwin

Other Formats:

Comma delimited format used in spreadsheet applications
http://www.bom.gov.au/fwo/IDN60901/IDN60901.95767.axf

JavaScript Object Notation format (JSON) in row-major order
http://www.bom.gov.au/fwo/IDN60901/IDN60901.95767.json